Time;durP1;ratioP1;P1;durP2;ratioP2;P2;SDS_P1;SDS_P2;PMS_P1;PMS_P2;Temp;Humidity;BMP_temperature;BMP_pressure;BME280_temperature;BME280_humidity;BME280_pressure;Samples;Min_cycle;Max_cycle;Signal;HPM_P1;HPM_P2
2022/11/28 00:01:02;;;;;;;11.07;6.40;;;9.30;91.40;;;;;;5063420;28;20043;-77
2022/11/28 00:03:28;;;;;;;12.45;6.97;;;9.30;91.30;;;;;;5080192;28;20040;-77
2022/11/28 00:05:53;;;;;;;10.15;5.43;;;9.40;91.30;;;;;;5073440;28;20016;-77
2022/11/28 00:08:20;;;;;;;10.30;6.40;;;9.30;91.20;;;;;;5080371;28;20024;-77
2022/11/28 00:10:46;;;;;;;11.45;6.32;;;9.30;91.20;;;;;;5074071;28;20063;-77
2022/11/28 00:13:11;;;;;;;11.40;6.90;;;9.40;91.20;;;;;;5090858;28;20090;-77
2022/11/28 00:15:37;;;;;;;10.27;6.47;;;9.40;91.20;;;;;;5069272;28;20475;-76
2022/11/28 00:18:03;;;;;;;9.70;5.05;;;9.30;91.20;;;;;;5071455;28;20023;-77
2022/11/28 00:20:30;;;;;;;10.32;6.88;;;9.30;91.10;;;;;;5076783;28;20024;-77
2022/11/28 00:22:56;;;;;;;10.35;6.40;;;9.30;91.20;;;;;;5067755;28;20497;-77
2022/11/28 00:25:22;;;;;;;8.85;5.45;;;9.30;91.20;;;;;;5071010;28;20039;-78
2022/11/28 00:27:47;;;;;;;9.73;5.43;;;9.40;91.10;;;;;;5064264;28;20031;-77
2022/11/28 00:30:13;;;;;;;9.00;5.68;;;9.30;91.10;;;;;;5082997;28;20017;-77
2022/11/28 00:32:39;;;;;;;12.50;7.43;;;9.30;91.10;;;;;;5081706;28;20482;-78
2022/11/28 00:35:04;;;;;;;13.43;7.38;;;9.30;91.20;;;;;;5083192;28;20029;-78
2022/11/28 00:37:30;;;;;;;8.55;5.55;;;9.40;91.20;;;;;;5061899;28;20046;-77
2022/11/28 00:39:56;;;;;;;9.23;5.20;;;9.40;91.20;;;;;;5088391;28;20028;-76
2022/11/28 00:42:21;;;;;;;9.15;5.55;;;9.40;91.50;;;;;;5081332;28;20027;-77
2022/11/28 00:44:53;;;;;;;9.20;6.07;;;9.40;91.20;;;;;;5080488;28;20024;-77
2022/11/28 00:47:18;;;;;;;10.30;5.50;;;9.40;91.20;;;;;;5074303;28;20100;-77
2022/11/28 00:49:44;;;;;;;10.65;6.40;;;9.40;91.30;;;;;;5089076;28;20452;-77
2022/11/28 00:52:10;;;;;;;10.75;6.40;;;9.40;91.20;;;;;;5075948;28;20016;-77
2022/11/28 00:54:35;;;;;;;11.75;7.70;;;9.40;91.20;;;;;;5087019;28;20482;-77
2022/11/28 00:57:01;;;;;;;9.32;5.45;;;9.50;91.30;;;;;;5089158;28;20069;-77
2022/11/28 00:59:26;;;;;;;8.77;4.78;;;9.50;91.20;;;;;;5088879;28;20470;-77
2022/11/28 01:01:52;;;;;;;11.15;5.70;;;9.50;91.10;;;;;;5070278;28;20047;-77
2022/11/28 01:04:18;;;;;;;9.05;5.35;;;9.50;91.10;;;;;;5082405;28;20056;-78
2022/11/28 01:06:49;;;;;;;9.80;6.30;;;9.50;90.90;;;;;;5073748;28;20047;-76
2022/11/28 01:09:20;;;;;;;10.43;6.13;;;9.50;91.10;;;;;;5058973;28;20024;-77
2022/11/28 01:11:48;;;;;;;12.18;6.47;;;9.50;91.20;;;;;;5085230;28;20453;-77
2022/11/28 01:14:14;;;;;;;9.45;5.55;;;9.50;91.30;;;;;;5065705;28;20024;-77
2022/11/28 01:16:41;;;;;;;8.80;5.43;;;9.50;91.20;;;;;;5071674;28;20028;-78
2022/11/28 01:19:07;;;;;;;10.30;6.05;;;9.50;91.30;;;;;;5082577;28;20031;-76
2022/11/28 01:21:33;;;;;;;10.10;6.05;;;9.50;91.30;;;;;;5089207;28;20032;-77
2022/11/28 01:23:58;;;;;;;8.75;5.18;;;9.60;91.30;;;;;;5078235;28;20060;-77
2022/11/28 01:26:27;;;;;;;12.10;5.32;;;9.60;91.30;;;;;;5089911;28;20071;-75
2022/11/28 01:28:54;;;;;;;13.20;6.20;;;9.60;91.30;;;;;;5077087;28;20425;-77
2022/11/28 01:31:25;;;;;;;10.13;6.10;;;9.60;91.30;;;;;;5088723;28;20394;-76
2022/11/28 01:33:52;;;;;;;8.20;5.13;;;9.70;91.30;;;;;;5076864;28;20230;-77
2022/11/28 01:36:19;;;;;;;8.90;5.28;;;9.70;91.40;;;;;;5068122;28;20028;-77
2022/11/28 01:38:45;;;;;;;8.23;4.80;;;9.70;91.30;;;;;;5065636;28;20359;-78
2022/11/28 01:41:16;;;;;;;9.85;5.60;;;9.70;91.30;;;;;;5088744;28;20039;-77
2022/11/28 01:44:17;;;;;;;7.90;5.22;;;9.70;91.40;;;;;;5083529;28;20024;-77
2022/11/28 01:46:43;;;;;;;13.10;6.65;;;9.70;91.40;;;;;;4968989;28;20027;-78
2022/11/28 01:49:14;;;;;;;7.38;4.43;;;9.70;91.20;;;;;;5053163;28;20490;-77
2022/11/28 01:51:44;;;;;;;8.63;4.60;;;9.70;91.10;;;;;;5081402;28;20024;-77
2022/11/28 01:54:11;;;;;;;7.82;4.60;;;9.80;91.10;;;;;;5082480;28;20150;-77
2022/11/28 01:56:50;;;;;;;11.52;5.18;;;9.80;91.20;;;;;;5087371;28;20028;-78
2022/11/28 01:59:17;;;;;;;10.88;5.78;;;9.80;91.30;;;;;;5058560;28;20020;-78
2022/11/28 02:01:44;;;;;;;6.57;4.40;;;9.80;91.10;;;;;;5071435;28;20025;-76
2022/11/28 02:04:12;;;;;;;7.68;4.03;;;9.90;91.10;;;;;;5073009;28;20032;-77
2022/11/28 02:06:39;;;;;;;7.65;5.10;;;9.90;91.10;;;;;;5067943;28;20034;-77
2022/11/28 02:09:10;;;;;;;7.25;4.45;;;9.90;91.20;;;;;;5075502;28;20025;-77
2022/11/28 02:11:38;;;;;;;12.40;5.43;;;9.90;91.20;;;;;;5092062;28;20115;-78
2022/11/28 02:14:30;;;;;;;8.90;4.68;;;9.90;91.20;;;;;;5088479;28;20066;-78
2022/11/28 02:17:10;;;;;;;7.80;4.38;;;9.90;91.20;;;;;;5090233;28;20042;-78
2022/11/28 02:19:54;;;;;;;7.82;3.90;;;9.90;91.10;;;;;;5072415;28;20024;-79
2022/11/28 02:22:28;;;;;;;12.40;5.40;;;9.90;91.00;;;;;;5064609;28;20048;-78
2022/11/28 02:25:17;;;;;;;8.30;5.55;;;9.90;90.90;;;;;;5051606;28;20025;-77
2022/11/28 02:28:10;;;;;;;7.70;4.57;;;9.80;91.30;;;;;;5068693;28;20553;-77
2022/11/28 02:30:39;;;;;;;8.65;3.75;;;9.80;91.20;;;;;;5059404;28;20226;-77
2022/11/28 02:33:20;;;;;;;6.93;3.92;;;9.80;91.20;;;;;;5066413;28;20028;-77
2022/11/28 02:36:02;;;;;;;7.40;4.18;;;9.80;91.40;;;;;;5068861;28;20033;-77
2022/11/28 02:39:02;;;;;;;8.30;5.03;;;9.70;91.40;;;;;;5064467;28;20078;-76
2022/11/28 02:41:55;;;;;;;11.20;4.90;;;9.70;91.60;;;;;;5070348;28;20044;-78
2022/11/28 02:44:38;;;;;;;8.80;4.10;;;9.70;91.80;;;;;;5070440;28;20517;-75
2022/11/28 02:47:21;;;;;;;7.60;5.07;;;9.60;92.00;;;;;;5064563;28;20029;-77
2022/11/28 02:49:50;;;;;;;7.93;3.70;;;9.60;92.40;;;;;;5054326;28;20028;-75
2022/11/28 02:52:40;;;;;;;9.75;5.53;;;9.60;92.10;;;;;;5064192;28;20060;-76
2022/11/28 02:55:07;;;;;;;9.07;4.97;;;9.60;92.00;;;;;;5065241;28;20028;-76
2022/11/28 02:57:42;;;;;;;8.73;5.72;;;9.60;92.20;;;;;;5066067;28;20040;-78
2022/11/28 03:00:30;;;;;;;7.72;4.68;;;9.50;92.80;;;;;;5053984;28;20021;-77
2022/11/28 03:03:20;;;;;;;8.70;5.40;;;9.50;92.50;;;;;;5063065;28;20037;-76
2022/11/28 03:06:11;;;;;;;9.00;5.95;;;9.60;92.60;;;;;;5061342;28;20028;-76
2022/11/28 03:08:52;;;;;;;7.40;5.15;;;9.60;92.50;;;;;;5068542;28;20028;-77
2022/11/28 03:11:33;;;;;;;10.55;5.22;;;9.60;92.50;;;;;;5069174;28;20120;-78
2022/11/28 03:14:19;;;;;;;9.75;6.22;;;9.60;92.40;;;;;;5061124;28;20024;-78
2022/11/28 03:16:52;;;;;;;10.48;5.32;;;9.60;92.60;;;;;;5052932;28;20048;-76
2022/11/28 03:19:33;;;;;;;10.90;5.85;;;9.60;92.60;;;;;;5063173;28;20545;-77
2022/11/28 03:22:27;;;;;;;9.65;5.53;;;9.60;92.60;;;;;;5056857;28;20052;-77
2022/11/28 03:25:16;;;;;;;9.25;5.13;;;9.60;92.60;;;;;;5084893;28;20025;-76
2022/11/28 03:27:45;;;;;;;7.95;4.95;;;9.50;92.50;;;;;;5058952;28;20093;-76
2022/11/28 03:30:18;;;;;;;7.75;5.20;;;9.50;92.50;;;;;;5082414;28;20031;-77
2022/11/28 03:32:48;;;;;;;8.75;4.93;;;9.50;92.60;;;;;;5076801;28;20016;-76
2022/11/28 03:35:20;;;;;;;7.55;4.70;;;9.60;92.50;;;;;;5089758;28;20023;-77
2022/11/28 03:37:52;;;;;;;8.65;5.00;;;9.60;92.60;;;;;;5073326;28;20013;-77
2022/11/28 03:40:22;;;;;;;8.40;5.15;;;9.60;93.00;;;;;;5067204;28;20113;-76
2022/11/28 03:42:57;;;;;;;9.38;6.20;;;9.60;92.90;;;;;;5087208;28;20115;-77
2022/11/28 03:45:26;;;;;;;7.57;5.22;;;9.60;93.00;;;;;;5090386;28;20024;-78
2022/11/28 03:48:00;;;;;;;9.25;5.82;;;9.60;93.00;;;;;;5074031;28;20062;-77
2022/11/28 03:50:46;;;;;;;11.13;6.15;;;9.60;93.30;;;;;;5077897;28;20099;-76
2022/11/28 03:53:18;;;;;;;11.25;6.10;;;9.60;93.30;;;;;;5075516;28;20030;-77
2022/11/28 03:56:09;;;;;;;8.00;4.55;;;9.70;93.20;;;;;;5065837;28;20812;-77
2022/11/28 03:58:42;;;;;;;8.40;5.00;;;9.70;93.10;;;;;;5073516;28;20020;-77
2022/11/28 04:01:21;;;;;;;8.63;4.93;;;9.70;93.00;;;;;;5092131;28;20111;-77
2022/11/28 04:04:10;;;;;;;6.90;4.40;;;9.70;92.80;;;;;;5072612;28;20127;-78
2022/11/28 04:06:53;;;;;;;7.13;4.50;;;9.70;92.30;;;;;;5042451;28;20051;-77
2022/11/28 04:09:36;;;;;;;10.57;6.28;;;9.70;92.30;;;;;;5056664;28;20026;-78
2022/11/28 04:12:29;;;;;;;9.80;6.38;;;9.70;92.30;;;;;;5090791;28;20111;-76
2022/11/28 04:15:00;;;;;;;12.05;7.72;;;9.70;92.60;;;;;;5073681;28;20501;-77
2022/11/28 04:17:36;;;;;;;7.55;5.25;;;9.70;92.80;;;;;;5057194;28;20024;-77
2022/11/28 04:20:21;;;;;;;10.00;6.60;;;9.70;92.70;;;;;;5082605;28;20024;-76
2022/11/28 04:22:51;;;;;;;11.07;7.25;;;9.70;92.80;;;;;;5088283;28;20177;-77
2022/11/28 04:25:20;;;;;;;8.02;5.32;;;9.70;92.70;;;;;;5071429;28;20117;-77
2022/11/28 04:27:55;;;;;;;9.18;5.80;;;9.70;92.20;;;;;;5090600;28;20050;-77
2022/11/28 04:30:21;;;;;;;10.95;6.15;;;9.70;92.90;;;;;;5087216;28;20049;-78
2022/11/28 04:32:52;;;;;;;8.30;5.40;;;9.70;92.60;;;;;;5090604;28;20032;-76
2022/11/28 04:35:29;;;;;;;10.30;5.85;;;9.70;92.90;;;;;;5062682;28;20162;-77
2022/11/28 04:37:57;;;;;;;10.75;6.68;;;9.70;92.80;;;;;;5074191;28;20105;-77
2022/11/28 04:40:26;;;;;;;8.73;5.15;;;9.70;93.20;;;;;;5087482;28;20024;-78
2022/11/28 04:43:00;;;;;;;11.23;6.35;;;9.70;93.00;;;;;;5077923;28;20033;-77
2022/11/28 04:45:36;;;;;;;9.20;5.55;;;9.70;93.00;;;;;;5078491;28;20142;-77
2022/11/28 04:48:02;;;;;;;9.30;5.78;;;9.70;93.00;;;;;;5087312;28;20016;-77
2022/11/28 04:50:41;;;;;;;7.38;4.90;;;9.70;93.00;;;;;;5066240;28;20130;-76
2022/11/28 04:53:34;;;;;;;12.60;7.30;;;9.70;92.70;;;;;;5064894;28;20029;-76
2022/11/28 04:56:12;;;;;;;6.28;3.75;;;9.70;92.80;;;;;;5078108;28;20490;-77
2022/11/28 04:58:44;;;;;;;8.40;5.65;;;9.70;92.50;;;;;;5080551;28;20020;-77
2022/11/28 05:01:16;;;;;;;9.38;5.53;;;9.70;92.70;;;;;;5082352;28;20020;-76
2022/11/28 05:03:42;;;;;;;8.75;5.80;;;9.70;92.70;;;;;;5059145;28;20390;-75
2022/11/28 05:06:08;;;;;;;11.30;6.72;;;9.70;93.00;;;;;;5086407;28;20028;-76
2022/11/28 05:08:34;;;;;;;9.40;5.88;;;9.70;93.00;;;;;;5080430;28;20475;-75
2022/11/28 05:10:59;;;;;;;10.13;6.97;;;9.70;93.30;;;;;;5072867;28;20020;-76
2022/11/28 05:13:25;;;;;;;9.45;6.22;;;9.70;93.50;;;;;;5089985;28;20062;-76
2022/11/28 05:15:51;;;;;;;10.77;6.88;;;9.70;93.30;;;;;;5088972;28;20031;-77
2022/11/28 05:18:17;;;;;;;8.00;5.57;;;9.70;93.10;;;;;;5086889;28;20047;-77
2022/11/28 05:20:43;;;;;;;8.07;5.20;;;9.70;93.30;;;;;;5055843;28;20056;-76
2022/11/28 05:23:09;;;;;;;10.10;6.10;;;9.70;93.60;;;;;;5078499;28;20060;-76
2022/11/28 05:25:38;;;;;;;7.07;4.93;;;9.70;93.40;;;;;;5087276;28;20027;-76
2022/11/28 05:28:06;;;;;;;8.15;4.68;;;9.70;93.50;;;;;;5088007;28;20028;-77
2022/11/28 05:30:32;;;;;;;7.47;5.28;;;9.70;93.30;;;;;;5086681;28;20024;-76
2022/11/28 05:32:58;;;;;;;11.18;7.95;;;9.70;93.10;;;;;;5085503;28;20413;-76
2022/11/28 05:35:24;;;;;;;7.22;4.57;;;9.70;93.50;;;;;;5086614;28;20044;-77
2022/11/28 05:37:49;;;;;;;8.35;4.90;;;9.70;93.50;;;;;;5081184;28;20056;-76
2022/11/28 05:40:15;;;;;;;6.53;4.50;;;9.70;93.50;;;;;;5090259;28;20025;-77
2022/11/28 05:42:41;;;;;;;7.95;5.40;;;9.70;93.50;;;;;;5083929;28;20085;-77
2022/11/28 05:45:07;;;;;;;9.55;5.68;;;9.80;93.60;;;;;;5087630;28;20492;-76
2022/11/28 05:47:33;;;;;;;7.45;4.25;;;9.80;93.80;;;;;;5081954;28;20024;-77
2022/11/28 05:49:58;;;;;;;9.20;6.35;;;9.80;93.70;;;;;;5086215;28;20532;-76
2022/11/28 05:52:24;;;;;;;7.32;4.03;;;9.80;93.80;;;;;;5079124;28;20099;-76
2022/11/28 05:54:50;;;;;;;11.55;6.53;;;9.90;93.50;;;;;;5067361;28;20032;-75
2022/11/28 05:57:15;;;;;;;7.60;5.63;;;9.90;93.70;;;;;;5093090;28;20036;-76
2022/11/28 05:59:42;;;;;;;9.27;5.93;;;9.90;93.70;;;;;;5083209;28;20535;-76
2022/11/28 06:02:07;;;;;;;8.90;5.30;;;9.90;94.00;;;;;;5086796;28;20428;-77
2022/11/28 06:04:33;;;;;;;7.30;5.40;;;9.90;93.40;;;;;;5090238;28;20032;-77
2022/11/28 06:06:59;;;;;;;6.38;4.15;;;9.90;93.40;;;;;;5073116;28;20028;-77
2022/11/28 06:09:24;;;;;;;5.40;3.30;;;9.90;93.40;;;;;;5086286;28;20033;-76
2022/11/28 06:11:50;;;;;;;6.22;3.97;;;9.80;93.20;;;;;;5080407;22;20051;-76
2022/11/28 06:14:16;;;;;;;8.50;4.93;;;9.90;93.30;;;;;;5050407;28;20472;-77
2022/11/28 06:16:42;;;;;;;5.60;3.00;;;9.90;93.50;;;;;;5050774;28;20090;-77
2022/11/28 06:19:10;;;;;;;6.35;4.20;;;9.90;93.50;;;;;;5033503;28;20060;-75
2022/11/28 06:21:36;;;;;;;5.72;3.10;;;9.90;93.60;;;;;;5030201;28;20018;-76
2022/11/28 06:24:02;;;;;;;9.27;4.25;;;9.90;93.50;;;;;;5030292;28;20056;-77
2022/11/28 06:26:28;;;;;;;4.78;2.72;;;9.90;93.30;;;;;;5032267;28;20074;-76
2022/11/28 06:28:54;;;;;;;7.03;4.10;;;9.90;93.30;;;;;;5047904;28;20107;-78
2022/11/28 06:31:22;;;;;;;8.43;4.15;;;9.90;93.60;;;;;;5042433;28;20633;-78
2022/11/28 06:33:48;;;;;;;5.75;3.83;;;9.90;93.50;;;;;;5020297;28;20195;-77
2022/11/28 06:36:16;;;;;;;4.50;2.92;;;9.90;93.40;;;;;;5022231;28;20101;-77
2022/11/28 06:38:42;;;;;;;6.65;3.80;;;9.90;93.30;;;;;;5041719;28;20032;-76
2022/11/28 06:41:11;;;;;;;6.82;3.92;;;9.90;93.30;;;;;;5048776;28;20021;-77
2022/11/28 06:43:37;;;;;;;6.68;4.50;;;10.00;93.50;;;;;;5051987;28;20029;-77
2022/11/28 06:46:03;;;;;;;7.53;4.07;;;10.10;93.60;;;;;;5026762;28;20476;-77
2022/11/28 06:48:29;;;;;;;6.43;4.35;;;10.10;93.40;;;;;;5044518;28;20135;-77
2022/11/28 06:51:02;;;;;;;8.23;5.72;;;10.10;93.40;;;;;;5019932;28;20022;-76
2022/11/28 06:53:28;;;;;;;6.30;4.00;;;10.10;93.30;;;;;;5022100;28;20022;-76
2022/11/28 06:55:53;;;;;;;4.43;3.05;;;10.10;93.20;;;;;;5024630;28;20017;-77
2022/11/28 06:58:19;;;;;;;5.93;2.97;;;10.10;93.10;;;;;;5051491;28;20062;-76
2022/11/28 07:00:45;;;;;;;7.32;4.10;;;10.00;93.00;;;;;;5047976;28;20017;-76
2022/11/28 07:03:12;;;;;;;6.53;4.40;;;10.00;93.20;;;;;;5022356;28;20091;-77
2022/11/28 07:05:38;;;;;;;6.30;4.32;;;10.00;93.40;;;;;;5034637;28;20034;-77
2022/11/28 07:08:04;;;;;;;8.20;5.35;;;10.00;93.30;;;;;;5043480;28;20037;-77
2022/11/28 07:10:29;;;;;;;7.30;4.70;;;10.00;93.50;;;;;;5037523;28;20041;-77
2022/11/28 07:12:57;;;;;;;7.03;5.00;;;10.00;93.70;;;;;;5030152;28;20051;-77
2022/11/28 07:15:23;;;;;;;7.38;4.80;;;10.00;93.80;;;;;;5040436;28;20079;-77
2022/11/28 07:17:49;;;;;;;7.85;5.38;;;10.00;93.70;;;;;;5037013;28;20548;-76
2022/11/28 07:20:15;;;;;;;9.30;6.13;;;10.00;93.90;;;;;;5050018;28;20017;-76
2022/11/28 07:22:42;;;;;;;9.95;6.95;;;10.00;94.20;;;;;;5036984;28;20119;-75
2022/11/28 07:25:09;;;;;;;10.43;7.07;;;10.00;94.30;;;;;;5022022;28;20028;-76
2022/11/28 07:27:34;;;;;;;7.28;5.07;;;10.00;94.30;;;;;;5042793;28;20029;-76
2022/11/28 07:30:00;;;;;;;8.48;5.93;;;10.00;94.30;;;;;;5042647;28;20036;-77
2022/11/28 07:32:25;;;;;;;9.05;6.25;;;10.00;94.40;;;;;;5032253;28;20049;-77
2022/11/28 07:34:51;;;;;;;8.15;5.40;;;10.00;94.40;;;;;;5041596;28;20378;-77
2022/11/28 07:37:17;;;;;;;10.15;7.82;;;10.00;94.50;;;;;;5038817;28;20489;-77
2022/11/28 07:39:43;;;;;;;10.25;7.35;;;10.00;94.60;;;;;;5037012;28;20029;-76
2022/11/28 07:42:11;;;;;;;8.93;6.32;;;10.00;94.60;;;;;;5020723;28;20071;-76
2022/11/28 07:44:37;;;;;;;8.07;6.57;;;10.00;94.70;;;;;;5035864;28;20030;-77
2022/11/28 07:47:03;;;;;;;9.57;6.50;;;10.00;94.70;;;;;;5044668;28;20021;-76
2022/11/28 07:49:28;;;;;;;8.82;6.18;;;10.00;94.60;;;;;;5048714;28;20375;-78
2022/11/28 07:51:54;;;;;;;6.82;4.97;;;10.00;94.60;;;;;;5045240;28;20075;-77
2022/11/28 07:54:20;;;;;;;10.02;6.65;;;9.90;94.60;;;;;;5047502;28;20104;-76
2022/11/28 07:56:45;;;;;;;10.63;7.85;;;9.90;94.60;;;;;;5027296;28;20655;-78
2022/11/28 07:59:11;;;;;;;10.13;7.13;;;9.90;94.70;;;;;;5041999;28;20037;-78
2022/11/28 08:01:37;;;;;;;9.35;6.65;;;10.00;94.70;;;;;;5028278;28;20028;-78
2022/11/28 08:04:06;;;;;;;8.05;5.82;;;9.90;94.60;;;;;;5042836;28;20051;-77
2022/11/28 08:06:35;;;;;;;13.07;9.55;;;9.90;94.70;;;;;;5018950;28;20037;-78
2022/11/28 08:09:01;;;;;;;6.65;5.07;;;9.90;94.70;;;;;;5029326;28;20051;-77
2022/11/28 08:11:28;;;;;;;10.55;7.90;;;9.90;94.30;;;;;;5049834;28;20434;-78
2022/11/28 08:13:56;;;;;;;8.25;6.07;;;9.90;94.40;;;;;;5019444;28;20104;-77
2022/11/28 08:16:23;;;;;;;6.68;4.97;;;9.90;94.50;;;;;;5037925;28;20029;-77
2022/11/28 08:18:50;;;;;;;9.48;7.07;;;9.90;94.40;;;;;;5030330;28;20025;-79
2022/11/28 08:21:22;;;;;;;11.68;8.30;;;9.90;94.40;;;;;;5050154;28;20533;-76
2022/11/28 08:23:50;;;;;;;10.07;6.95;;;9.90;94.60;;;;;;5038075;28;20408;-77
2022/11/28 08:26:17;;;;;;;10.98;6.50;;;9.90;94.70;;;;;;5046865;28;20050;-76
2022/11/28 08:28:43;;;;;;;8.38;6.22;;;10.00;94.80;;;;;;5039668;28;20364;-78
2022/11/28 08:31:16;;;;;;;9.68;6.60;;;10.00;94.70;;;;;;5018740;28;20041;-76
2022/11/28 08:33:43;;;;;;;11.43;7.60;;;10.00;94.60;;;;;;5040871;28;20115;-76
2022/11/28 08:36:11;;;;;;;11.95;7.43;;;10.00;94.60;;;;;;5022412;28;20391;-78
2022/11/28 08:38:37;;;;;;;10.38;7.75;;;10.00;94.70;;;;;;5039509;28;20471;-78
2022/11/28 08:41:10;;;;;;;9.73;6.95;;;10.00;94.70;;;;;;5010594;28;20771;-76
2022/11/28 08:43:37;;;;;;;9.18;7.00;;;9.90;94.80;;;;;;5039412;28;20037;-77
2022/11/28 08:46:09;;;;;;;13.52;7.95;;;9.90;94.80;;;;;;5040398;28;20555;-78
2022/11/28 08:48:35;;;;;;;11.48;8.63;;;10.00;94.70;;;;;;5038973;28;20033;-76
2022/11/28 08:51:01;;;;;;;10.07;7.38;;;10.00;94.90;;;;;;5037275;28;20096;-76
2022/11/28 08:53:26;;;;;;;10.73;7.72;;;10.00;94.90;;;;;;5039932;28;20067;-78
2022/11/28 08:55:52;;;;;;;10.75;8.30;;;10.00;94.90;;;;;;5040662;28;20032;-77
2022/11/28 08:58:18;;;;;;;10.90;8.02;;;10.00;95.00;;;;;;5048483;28;20072;-79
2022/11/28 09:00:43;;;;;;;14.20;8.98;;;10.10;95.00;;;;;;5038500;28;20071;-76
2022/11/28 09:03:19;;;;;;;10.90;7.82;;;10.10;94.90;;;;;;5044492;28;20125;-78
2022/11/28 09:05:45;;;;;;;12.38;8.80;;;10.10;94.90;;;;;;5045928;28;20495;-77
2022/11/28 09:08:13;;;;;;;12.68;9.60;;;10.20;94.80;;;;;;5047777;28;20024;-77
2022/11/28 09:10:40;;;;;;;10.88;8.20;;;10.20;94.80;;;;;;5037407;28;20064;-76
2022/11/28 09:13:06;;;;;;;8.65;6.32;;;10.20;94.80;;;;;;5016476;28;20028;-77
2022/11/28 09:15:32;;;;;;;12.73;8.70;;;10.20;94.70;;;;;;5039999;28;20025;-77
2022/11/28 09:17:58;;;;;;;13.40;10.30;;;10.20;94.80;;;;;;5046274;28;20025;-77
2022/11/28 09:20:25;;;;;;;15.15;11.75;;;10.20;94.90;;;;;;5038392;28;20383;-74
2022/11/28 09:22:51;;;;;;;14.88;10.18;;;10.10;94.90;;;;;;5047884;28;20028;-75
2022/11/28 09:25:18;;;;;;;16.55;11.93;;;10.10;95.00;;;;;;5033879;28;20041;-75
2022/11/28 09:27:45;;;;;;;13.82;11.10;;;10.10;95.10;;;;;;5044464;28;20022;-75
2022/11/28 09:30:11;;;;;;;15.55;11.82;;;10.10;95.10;;;;;;5030293;28;20464;-75
2022/11/28 09:32:37;;;;;;;11.75;8.20;;;10.10;95.20;;;;;;5040831;28;20059;-76
2022/11/28 09:35:03;;;;;;;12.13;8.60;;;10.10;95.20;;;;;;5040177;28;20020;-75
2022/11/28 09:37:29;;;;;;;13.45;10.68;;;10.20;95.20;;;;;;5025024;28;20025;-74
2022/11/28 09:39:55;;;;;;;13.70;11.05;;;10.20;95.30;;;;;;5041061;28;20585;-74
2022/11/28 09:42:36;;;;;;;15.25;9.98;;;10.20;95.30;;;;;;5040537;28;20029;-76
2022/11/28 09:45:34;;;;;;;13.50;10.75;;;10.20;95.20;;;;;;5046029;28;20039;-75
2022/11/28 09:48:21;;;;;;;13.93;10.43;;;10.20;95.30;;;;;;5000793;28;20533;-74
2022/11/28 09:50:53;;;;;;;12.82;9.90;;;10.30;95.40;;;;;;5027343;28;20022;-75
2022/11/28 09:54:00;;;;;;;12.45;8.32;;;10.30;95.30;;;;;;5045479;28;20364;-75
2022/11/28 09:56:26;;;;;;;11.63;9.10;;;10.30;95.40;;;;;;4966499;28;20034;-76
2022/11/28 09:58:59;;;;;;;10.90;8.52;;;10.30;95.30;;;;;;4967472;28;20093;-76
2022/11/28 10:01:41;;;;;;;14.65;10.93;;;10.30;95.40;;;;;;4997804;28;20029;-76
2022/11/28 10:04:35;;;;;;;14.38;9.95;;;10.40;95.40;;;;;;5033188;28;20036;-75
2022/11/28 10:07:24;;;;;;;16.38;11.13;;;10.40;95.40;;;;;;5033380;28;20028;-75
2022/11/28 10:10:12;;;;;;;12.23;8.25;;;10.40;95.40;;;;;;5029499;28;20056;-77
2022/11/28 10:13:01;;;;;;;11.63;9.02;;;10.40;95.30;;;;;;5039935;28;20041;-76
2022/11/28 10:15:37;;;;;;;12.73;9.95;;;10.40;95.20;;;;;;5023070;28;20043;-76
2022/11/28 10:18:04;;;;;;;15.70;10.88;;;10.40;95.20;;;;;;5035799;28;20049;-78
2022/11/28 10:20:36;;;;;;;11.93;9.02;;;10.50;95.30;;;;;;5038909;28;20025;-76
2022/11/28 10:23:11;;;;;;;14.90;10.70;;;10.50;95.20;;;;;;5042278;28;20160;-76
2022/11/28 10:25:45;;;;;;;12.07;9.07;;;10.50;95.10;;;;;;5047730;28;20017;-76
2022/11/28 10:28:20;;;;;;;11.63;9.20;;;10.50;95.00;;;;;;5028768;28;20029;-75
2022/11/28 10:30:53;;;;;;;14.60;9.65;;;10.50;95.10;;;;;;5048444;28;20025;-77
2022/11/28 10:33:32;;;;;;;11.30;8.93;;;10.50;95.00;;;;;;5044076;28;20025;-76
2022/11/28 10:36:01;;;;;;;11.00;7.53;;;10.60;95.10;;;;;;5051083;28;20036;-77
2022/11/28 10:38:30;;;;;;;11.38;8.23;;;10.60;95.00;;;;;;5028617;28;20050;-77
2022/11/28 10:41:33;;;;;;;9.82;7.72;;;10.60;95.00;;;;;;5051593;28;20036;-76
2022/11/28 10:44:11;;;;;;;10.27;7.22;;;10.60;95.00;;;;;;5035092;28;20043;-77
2022/11/28 10:46:56;;;;;;;11.50;8.13;;;10.60;94.90;;;;;;5034887;28;20043;-77
2022/11/28 10:49:42;;;;;;;11.38;8.25;;;10.50;95.00;;;;;;5044085;28;20091;-77
2022/11/28 10:52:30;;;;;;;11.70;8.95;;;10.60;95.00;;;;;;5039273;28;20025;-77
2022/11/28 10:55:11;;;;;;;14.13;10.27;;;10.50;95.00;;;;;;5040565;28;20458;-76
2022/11/28 10:57:52;;;;;;;12.25;8.10;;;10.50;95.10;;;;;;5037338;28;20032;-76
2022/11/28 11:00:18;;;;;;;;;;;10.60;95.20;;;;;;5043583;28;20096;-76
2022/11/28 11:02:50;;;;;;;14.55;9.95;;;10.60;95.10;;;;;;5047889;28;19923;-76
2022/11/28 11:05:25;;;;;;;14.68;10.27;;;10.60;95.10;;;;;;5040659;28;20048;-78
2022/11/28 11:08:15;;;;;;;13.18;8.48;;;10.60;95.20;;;;;;5041361;28;20021;-77
2022/11/28 11:10:56;;;;;;;15.18;10.68;;;10.60;95.20;;;;;;5044352;28;20114;-76
2022/11/28 11:13:26;;;;;;;16.25;11.43;;;10.70;95.20;;;;;;5048180;28;20643;-76
2022/11/28 11:16:08;;;;;;;18.75;13.13;;;10.70;95.20;;;;;;5049574;28;20020;-77
2022/11/28 11:18:37;;;;;;;16.08;10.63;;;10.70;95.10;;;;;;5031219;28;20479;-77
2022/11/28 11:21:22;;;;;;;17.98;10.25;;;10.70;95.00;;;;;;5042663;28;20132;-78
2022/11/28 11:23:49;;;;;;;13.07;8.10;;;10.70;95.10;;;;;;5046449;28;20033;-76
2022/11/28 11:26:32;;;;;;;16.52;11.45;;;10.70;94.90;;;;;;5050455;28;20503;-77
2022/11/28 11:28:58;;;;;;;15.40;10.90;;;10.70;95.10;;;;;;5030150;28;20428;-76
2022/11/28 11:31:30;;;;;;;14.18;10.50;;;10.70;95.10;;;;;;5047519;28;20025;-74
2022/11/28 11:34:14;;;;;;;18.45;11.85;;;10.70;95.00;;;;;;5027474;28;20018;-77
2022/11/28 11:36:40;;;;;;;18.58;11.30;;;10.70;95.10;;;;;;5043982;28;20037;-75
2022/11/28 11:39:17;;;;;;;19.52;13.25;;;10.70;95.10;;;;;;5043448;28;20029;-76
2022/11/28 11:42:09;;;;;;;16.92;12.05;;;10.70;95.10;;;;;;5045146;28;20024;-75
2022/11/28 11:44:35;;;;;;;18.73;11.93;;;10.70;95.10;;;;;;5045552;28;20033;-75
2022/11/28 11:47:04;;;;;;;15.38;11.38;;;10.70;95.20;;;;;;5024776;28;20032;-76
2022/11/28 11:49:33;;;;;;;16.17;11.27;;;10.80;95.20;;;;;;5029560;28;20009;-75
2022/11/28 11:52:13;;;;;;;13.95;10.43;;;10.80;95.20;;;;;;5032064;28;20333;-75
2022/11/28 11:54:58;;;;;;;17.98;11.68;;;10.80;95.10;;;;;;5047639;28;20402;-75
2022/11/28 11:57:34;;;;;;;16.67;11.93;;;10.80;95.00;;;;;;5043572;28;20491;-75
2022/11/28 12:00:27;;;;;;;23.17;15.25;;;10.80;94.90;;;;;;5033785;28;20721;-76
2022/11/28 12:02:57;;;;;;;18.83;12.43;;;10.80;95.00;;;;;;5014536;28;20647;-77
2022/11/28 12:05:30;;;;;;;17.63;11.40;;;10.90;94.90;;;;;;5039933;28;20368;-76
2022/11/28 12:08:05;;;;;;;15.50;10.68;;;10.90;94.90;;;;;;5027581;28;20017;-75
2022/11/28 12:10:36;;;;;;;18.77;13.32;;;10.90;94.90;;;;;;5045685;28;20048;-75
2022/11/28 12:13:03;;;;;;;21.98;14.05;;;10.90;95.00;;;;;;5046846;28;20095;-76
2022/11/28 12:15:41;;;;;;;19.90;13.48;;;10.90;95.00;;;;;;5045758;28;20021;-75
2022/11/28 12:18:45;;;;;;;19.30;13.88;;;10.90;95.10;;;;;;5042967;28;20103;-75
2022/11/28 12:21:21;;;;;;;22.42;14.40;;;11.00;95.10;;;;;;5039204;28;20568;-76
2022/11/28 12:24:11;;;;;;;22.33;15.40;;;11.00;95.00;;;;;;5046646;28;20032;-76
2022/11/28 12:27:25;;;;;;;18.98;14.00;;;10.90;95.00;;;;;;5046253;28;20025;-76
2022/11/28 12:30:21;;;;;;;23.30;15.10;;;10.90;95.10;;;;;;5047796;28;20519;-76
2022/11/28 12:33:00;;;;;;;22.10;14.63;;;11.00;95.20;;;;;;5029948;28;20044;-75
2022/11/28 12:35:34;;;;;;;26.48;17.48;;;11.00;95.20;;;;;;5034321;28;20029;-75
2022/11/28 12:38:35;;;;;;;22.05;15.82;;;11.00;95.20;;;;;;5041723;28;20033;-75
2022/11/28 12:41:12;;;;;;;22.05;14.82;;;11.00;95.20;;;;;;5034525;28;20486;-76
2022/11/28 12:43:47;;;;;;;22.33;14.85;;;11.10;95.20;;;;;;5041036;28;20029;-75
2022/11/28 12:46:27;;;;;;;23.02;15.77;;;11.10;95.20;;;;;;5043781;28;20160;-76
2022/11/28 12:49:24;;;;;;;19.80;15.05;;;11.10;95.20;;;;;;5039427;28;20487;-77
2022/11/28 12:51:57;;;;;;;26.15;16.15;;;11.10;95.20;;;;;;5046893;28;20043;-75
2022/11/28 12:54:41;;;;;;;19.63;13.93;;;11.10;95.20;;;;;;5048694;28;20048;-75
2022/11/28 12:57:27;;;;;;;21.80;15.15;;;11.10;95.20;;;;;;5043478;28;20036;-75
2022/11/28 13:00:13;;;;;;;21.27;14.57;;;11.10;95.20;;;;;;5035495;28;20078;-75
2022/11/28 13:03:07;;;;;;;22.45;16.05;;;11.10;95.10;;;;;;5036169;28;20047;-73
2022/11/28 13:06:02;;;;;;;21.17;15.30;;;11.10;95.30;;;;;;4988645;28;20411;-76
2022/11/28 13:08:49;;;;;;;22.75;16.02;;;11.10;95.20;;;;;;5017463;28;20025;-75
2022/11/28 13:11:20;;;;;;;22.80;15.90;;;11.10;95.30;;;;;;5046531;28;20106;-75
2022/11/28 13:13:52;;;;;;;19.58;13.18;;;11.20;95.30;;;;;;5044366;28;20053;-75